Time;durP1;ratioP1;P1;durP2;ratioP2;P2;SDS_P1;SDS_P2;PMS_P1;PMS_P2;Temp;Humidity;BMP_temperature;BMP_pressure;BME280_temperature;BME280_humidity;BME280_pressure;Samples;Min_cycle;Max_cycle;Signal;HPM_P1;HPM_P2
2022/03/19 00:00:06;;;;;;;;;;;18.40;32.60;;;;;;8329819;28;20373;-50
2022/03/19 00:04:06;;;;;;;;;;;18.40;32.60;;;;;;8329588;28;21939;-49
2022/03/19 00:08:07;;;;;;;;;;;18.40;32.60;;;;;;8329562;28;19913;-47
2022/03/19 00:12:08;;;;;;;;;;;18.40;32.50;;;;;;8329583;28;19967;-49
2022/03/19 00:16:08;;;;;;;;;;;18.40;32.60;;;;;;8329381;28;19953;-49
2022/03/19 00:20:09;;;;;;;;;;;18.40;32.70;;;;;;8328993;28;19921;-50
2022/03/19 00:24:10;;;;;;;;;;;18.40;32.70;;;;;;8329416;28;20270;-51
2022/03/19 00:28:10;;;;;;;;;;;18.40;32.70;;;;;;8331399;28;19920;-48
2022/03/19 00:32:11;;;;;;;;;;;18.40;32.70;;;;;;8335041;28;20386;-47
2022/03/19 00:36:11;;;;;;;;;;;18.40;32.70;;;;;;8335908;28;19917;-49
2022/03/19 00:40:12;;;;;;;;;;;18.40;32.70;;;;;;8335663;28;20392;-48
2022/03/19 00:44:13;;;;;;;;;;;18.40;32.60;;;;;;8334922;28;20012;-48
2022/03/19 00:48:15;;;;;;;;;;;18.40;32.60;;;;;;8335380;28;19917;-49
2022/03/19 00:52:15;;;;;;;;;;;18.40;32.70;;;;;;8335281;28;19924;-48
2022/03/19 00:56:16;;;;;;;;;;;18.40;32.70;;;;;;8338009;28;20389;-51
2022/03/19 01:00:21;;;;;;;;;;;18.40;32.60;;;;;;8334827;28;19917;-51
2022/03/19 01:04:22;;;;;;;;;;;18.30;32.60;;;;;;8334751;28;19925;-47
2022/03/19 01:08:22;;;;;;;;;;;18.40;32.70;;;;;;8334417;28;20378;-47
2022/03/19 01:12:23;;;;;;;;;;;18.30;32.70;;;;;;8334804;28;19921;-49
2022/03/19 01:16:26;;;;;;;;;;;18.30;32.60;;;;;;8334301;28;20370;-49
2022/03/19 01:20:27;;;;;;;;;;;18.40;32.70;;;;;;8334051;28;20374;-50
2022/03/19 01:24:27;;;;;;;;;;;18.30;32.60;;;;;;8333877;28;20172;-48
2022/03/19 01:28:27;;;;;;;;;;;18.30;32.60;;;;;;8334371;28;19956;-49
2022/03/19 01:32:28;;;;;;;;;;;18.30;32.60;;;;;;8333351;28;20000;-48
2022/03/19 01:36:28;;;;;;;;;;;18.30;32.60;;;;;;8333910;28;19917;-47
2022/03/19 01:40:29;;;;;;;;;;;18.30;32.50;;;;;;8333629;28;19964;-47
2022/03/19 01:44:29;;;;;;;;;;;18.30;32.60;;;;;;8333018;28;19925;-48
2022/03/19 01:48:30;;;;;;;;;;;18.30;32.50;;;;;;8333719;28;19967;-49
2022/03/19 01:52:31;;;;;;;;;;;18.30;32.60;;;;;;8333139;28;19944;-48
2022/03/19 01:56:32;;;;;;;;;;;18.30;32.70;;;;;;8332765;28;19925;-49
2022/03/19 02:00:34;;;;;;;;;;;18.30;32.70;;;;;;8332884;28;20270;-48
2022/03/19 02:04:35;;;;;;;;;;;18.30;32.60;;;;;;8332254;28;19975;-48
2022/03/19 02:08:37;;;;;;;;;;;18.30;32.60;;;;;;8332539;28;20328;-48
2022/03/19 02:12:39;;;;;;;;;;;18.30;32.60;;;;;;8332610;28;19927;-53
2022/03/19 02:16:40;;;;;;;;;;;18.30;32.50;;;;;;8332591;28;20311;-49
2022/03/19 02:20:40;;;;;;;;;;;18.20;32.50;;;;;;8331929;28;19921;-48
2022/03/19 02:29:00;;;;;;;;;;;18.20;32.50;;;;;;8334667;28;19924;-49
2022/03/19 02:33:00;;;;;;;;;;;18.20;32.50;;;;;;8331921;28;20267;-49
2022/03/19 02:37:01;;;;;;;;;;;18.20;32.40;;;;;;8331829;28;19917;-49
2022/03/19 02:41:05;;;;;;;;;;;18.20;32.40;;;;;;8331364;28;20330;-47
2022/03/19 02:45:06;;;;;;;;;;;18.20;32.50;;;;;;8331497;28;20357;-47
2022/03/19 02:49:07;;;;;;;;;;;18.20;32.40;;;;;;8332289;28;19924;-50
2022/03/19 02:53:09;;;;;;;;;;;18.20;32.40;;;;;;8330877;28;20047;-49
2022/03/19 02:57:09;;;;;;;;;;;18.20;32.40;;;;;;8331571;28;19925;-48
2022/03/19 03:01:09;;;;;;;;;;;18.20;32.40;;;;;;8331191;28;20008;-49
2022/03/19 03:05:11;;;;;;;;;;;18.20;32.50;;;;;;8330629;28;19925;-49
2022/03/19 03:09:12;;;;;;;;;;;18.10;32.30;;;;;;8331300;28;19960;-49
2022/03/19 03:13:12;;;;;;;;;;;18.10;32.40;;;;;;8330931;28;19917;-48
2022/03/19 03:17:13;;;;;;;;;;;18.10;32.30;;;;;;8330455;28;19918;-48
2022/03/19 03:21:13;;;;;;;;;;;18.10;32.30;;;;;;8330604;28;19952;-49
2022/03/19 03:25:14;;;;;;;;;;;18.10;32.40;;;;;;8330491;28;19960;-48
2022/03/19 03:29:14;;;;;;;;;;;18.10;32.40;;;;;;8330365;28;20350;-49
2022/03/19 03:33:15;;;;;;;;;;;18.10;32.30;;;;;;8330590;28;19917;-48
2022/03/19 03:37:18;;;;;;;;;;;18.10;32.30;;;;;;8330486;28;20332;-48
2022/03/19 03:41:18;;;;;;;;;;;18.10;32.30;;;;;;8329826;28;20306;-49
2022/03/19 03:45:19;;;;;;;;;;;18.10;32.30;;;;;;8330318;28;19940;-48
2022/03/19 03:49:20;;;;;;;;;;;18.10;32.40;;;;;;8330336;28;19917;-48
2022/03/19 03:53:22;;;;;;;;;;;18.10;32.40;;;;;;8329596;28;19924;-50
2022/03/19 03:57:22;;;;;;;;;;;18.00;32.40;;;;;;8330281;28;19921;-48
2022/03/19 04:01:23;;;;;;;;;;;18.00;32.30;;;;;;8330213;28;20032;-49
2022/03/19 04:05:23;;;;;;;;;;;18.10;32.40;;;;;;8334985;28;19929;-47
2022/03/19 04:09:24;;;;;;;;;;;18.10;32.40;;;;;;8336617;28;19992;-47
2022/03/19 04:13:24;;;;;;;;;;;18.00;32.40;;;;;;8336872;28;20282;-47
2022/03/19 04:17:25;;;;;;;;;;;18.00;32.40;;;;;;8335810;28;19921;-48
2022/03/19 04:21:25;;;;;;;;;;;18.00;32.40;;;;;;8335990;28;19920;-48
2022/03/19 04:25:26;;;;;;;;;;;18.00;32.40;;;;;;8336137;28;19933;-49
2022/03/19 04:29:26;;;;;;;;;;;18.00;32.40;;;;;;8335671;28;20274;-47
2022/03/19 04:33:27;;;;;;;;;;;18.00;32.40;;;;;;8335867;28;19956;-47
2022/03/19 04:37:27;;;;;;;;;;;18.00;32.50;;;;;;8335941;28;19921;-48
2022/03/19 04:41:28;;;;;;;;;;;18.00;32.50;;;;;;8335336;28;19921;-49
2022/03/19 04:45:29;;;;;;;;;;;18.00;32.40;;;;;;8335273;28;19925;-49
2022/03/19 04:49:29;;;;;;;;;;;18.00;32.40;;;;;;8335457;28;19917;-47
2022/03/19 04:53:30;;;;;;;;;;;18.00;32.40;;;;;;8334720;28;20385;-48
2022/03/19 04:57:30;;;;;;;;;;;18.00;32.50;;;;;;8333287;28;19921;-50
2022/03/19 05:01:32;;;;;;;;;;;18.00;32.50;;;;;;8332939;28;19913;-49
2022/03/19 05:05:32;;;;;;;;;;;18.00;32.50;;;;;;8331719;28;19932;-49
2022/03/19 05:13:53;;;;;;;;;;;18.00;32.40;;;;;;8335468;28;19943;-48
2022/03/19 05:17:53;;;;;;;;;;;18.00;32.50;;;;;;8332054;28;19960;-49
2022/03/19 05:21:54;;;;;;;;;;;18.00;32.50;;;;;;8332295;28;20392;-48
2022/03/19 05:25:55;;;;;;;;;;;18.00;32.50;;;;;;8332351;28;19933;-50
2022/03/19 05:29:55;;;;;;;;;;;18.00;32.50;;;;;;8331895;28;20424;-48
2022/03/19 05:38:15;;;;;;;;;;;18.00;32.50;;;;;;8331578;28;19924;-47
2022/03/19 05:42:15;;;;;;;;;;;17.90;32.40;;;;;;8332181;28;20358;-47
2022/03/19 05:46:16;;;;;;;;;;;17.90;32.40;;;;;;8331762;28;19925;-47
2022/03/19 05:50:16;;;;;;;;;;;18.00;32.50;;;;;;8331581;28;19960;-47
2022/03/19 05:54:17;;;;;;;;;;;17.90;32.40;;;;;;8269993;28;1773767;-48
2022/03/19 05:58:17;;;;;;;;;;;17.90;32.40;;;;;;8333257;28;19918;-52
2022/03/19 06:02:18;;;;;;;;;;;17.90;32.40;;;;;;8332509;28;19994;-50
2022/03/19 06:06:18;;;;;;;;;;;17.90;32.40;;;;;;8332841;28;19972;-48
2022/03/19 06:10:18;;;;;;;;;;;17.90;32.40;;;;;;8333082;28;20016;-50
2022/03/19 06:14:19;;;;;;;;;;;17.90;32.40;;;;;;8332180;28;19925;-48
2022/03/19 06:18:19;;;;;;;;;;;17.90;32.50;;;;;;8332914;28;19921;-49
2022/03/19 06:22:21;;;;;;;;;;;17.90;32.50;;;;;;8332621;28;19970;-48
2022/03/19 06:26:23;;;;;;;;;;;17.90;32.50;;;;;;8330876;28;19999;-49
2022/03/19 06:30:24;;;;;;;;;;;17.90;32.50;;;;;;8332228;28;19917;-47
2022/03/19 06:34:24;;;;;;;;;;;17.90;32.50;;;;;;8331946;28;19917;-48
2022/03/19 06:38:26;;;;;;;;;;;17.90;32.40;;;;;;8331397;28;19917;-49
2022/03/19 06:42:26;;;;;;;;;;;18.00;32.30;;;;;;8331603;28;20374;-49
2022/03/19 06:46:27;;;;;;;;;;;18.10;32.20;;;;;;8331643;28;20070;-49
2022/03/19 06:50:27;;;;;;;;;;;18.10;32.10;;;;;;8331251;28;19913;-49
2022/03/19 06:54:27;;;;;;;;;;;18.10;32.10;;;;;;8331249;28;20390;-48
2022/03/19 06:58:28;;;;;;;;;;;18.10;32.10;;;;;;8331329;28;19921;-48
2022/03/19 07:02:29;;;;;;;;;;;18.10;32.10;;;;;;8330689;28;19917;-49
2022/03/19 07:06:29;;;;;;;;;;;18.10;32.20;;;;;;8331133;28;20328;-47
2022/03/19 07:10:30;;;;;;;;;;;18.00;32.20;;;;;;8331163;28;19917;-47
2022/03/19 07:14:30;;;;;;;;;;;18.00;32.30;;;;;;8330266;28;19964;-48
2022/03/19 07:18:31;;;;;;;;;;;18.00;32.30;;;;;;8361484;28;19920;-49
2022/03/19 07:22:47;;;;;;;;;;;18.00;32.30;;;;;;8376191;28;19925;-49
2022/03/19 07:26:48;;;;;;;;;;;18.00;32.40;;;;;;8329964;28;20298;-48
2022/03/19 07:30:48;;;;;;;;;;;18.00;32.30;;;;;;8330763;28;19924;-53
2022/03/19 07:34:49;;;;;;;;;;;18.00;32.30;;;;;;8330198;28;19957;-48
2022/03/19 07:38:49;;;;;;;;;;;18.00;32.30;;;;;;8330162;28;19917;-48
2022/03/19 07:42:50;;;;;;;;;;;18.00;32.30;;;;;;8330117;28;19924;-50
2022/03/19 07:46:50;;;;;;;;;;;18.00;32.20;;;;;;8330260;28;19925;-47
2022/03/19 07:50:51;;;;;;;;;;;18.10;32.10;;;;;;8329705;28;19913;-46
2022/03/19 07:54:54;;;;;;;;;;;18.10;32.10;;;;;;8329954;28;20004;-47
2022/03/19 07:58:55;;;;;;;;;;;18.10;32.20;;;;;;8330105;28;19940;-49
2022/03/19 08:02:55;;;;;;;;;;;18.10;32.20;;;;;;8329322;28;19917;-49
2022/03/19 08:06:56;;;;;;;;;;;18.00;32.20;;;;;;8329900;28;19925;-47
2022/03/19 08:10:57;;;;;;;;;;;18.10;32.30;;;;;;8339228;28;20365;-48
2022/03/19 08:14:59;;;;;;;;;;;18.00;32.20;;;;;;8327832;28;19921;-49
2022/03/19 08:19:00;;;;;;;;;;;18.00;32.20;;;;;;8362708;28;20023;-47
2022/03/19 08:23:01;;;;;;;;;;;18.10;32.30;;;;;;8362193;28;19917;-47
2022/03/19 08:27:02;;;;;;;;;;;18.10;32.30;;;;;;8362700;28;20612;-47
2022/03/19 08:31:02;;;;;;;;;;;18.00;32.30;;;;;;8362545;28;20000;-48
2022/03/19 08:35:03;;;;;;;;;;;18.00;32.30;;;;;;8362220;28;19940;-47
2022/03/19 08:43:23;;;;;;;;;;;18.10;32.30;;;;;;8366824;28;19923;-47
2022/03/19 08:47:23;;;;;;;;;;;18.10;32.30;;;;;;8361647;28;20024;-48
2022/03/19 08:51:39;;;;;;;;;;;18.10;32.30;;;;;;8367340;28;19970;-48
2022/03/19 08:55:39;;;;;;;;;;;18.10;32.30;;;;;;8368326;28;19932;-48
2022/03/19 08:59:40;;;;;;;;;;;18.10;32.20;;;;;;8367613;28;20374;-48
2022/03/19 09:03:41;;;;;;;;;;;18.10;32.20;;;;;;8367936;28;19916;-46
2022/03/19 09:07:41;;;;;;;;;;;18.10;32.30;;;;;;8367854;28;20301;-50
2022/03/19 09:11:41;;;;;;;;;;;18.10;32.20;;;;;;8367408;28;20380;-47
2022/03/19 09:15:42;;;;;;;;;;;18.10;32.30;;;;;;8367811;28;20011;-49
2022/03/19 09:19:42;;;;;;;;;;;18.10;32.30;;;;;;8367325;28;20341;-50
2022/03/19 09:23:45;;;;;;;;;;;18.20;32.30;;;;;;8366839;28;19921;-50
2022/03/19 09:27:45;;;;;;;;;;;18.20;32.30;;;;;;8367059;28;19979;-52
2022/03/19 09:31:46;;;;;;;;;;;18.20;32.30;;;;;;8367309;28;19913;-50
2022/03/19 09:35:47;;;;;;;;;;;18.20;32.20;;;;;;8361989;28;19917;-48
2022/03/19 09:39:49;;;;;;;;;;;18.20;32.30;;;;;;8366655;28;19917;-49
2022/03/19 09:43:49;;;;;;;;;;;18.20;32.20;;;;;;8366398;28;20007;-48
2022/03/19 09:47:51;;;;;;;;;;;18.20;32.20;;;;;;8365644;28;19925;-52
2022/03/19 09:51:53;;;;;;;;;;;18.20;32.20;;;;;;8366590;28;20392;-47
2022/03/19 09:55:54;;;;;;;;;;;18.30;32.10;;;;;;8363245;28;20094;-48
2022/03/19 09:59:54;;;;;;;;;;;18.30;32.20;;;;;;8333049;28;19924;-46
2022/03/19 10:03:59;;;;;;;;;;;18.30;32.10;;;;;;8332879;28;19963;-47
2022/03/19 10:12:20;;;;;;;;;;;18.30;32.10;;;;;;8332518;28;19919;-49
2022/03/19 10:16:22;;;;;;;;;;;18.30;32.00;;;;;;8331425;28;19923;-47
2022/03/19 10:20:22;;;;;;;;;;;18.30;32.10;;;;;;8362519;28;20011;-51
2022/03/19 10:24:24;;;;;;;;;;;18.30;32.00;;;;;;8365200;28;20420;-49
2022/03/19 10:28:32;;;;;;;;;;;18.40;32.00;;;;;;8365209;28;20415;-48
2022/03/19 10:32:33;;;;;;;;;;;18.40;32.00;;;;;;8364656;28;19913;-52
2022/03/19 10:36:34;;;;;;;;;;;18.40;32.00;;;;;;8364661;28;20365;-50
2022/03/19 10:40:36;;;;;;;;;;;18.40;31.90;;;;;;8334432;28;19921;-48
2022/03/19 10:44:38;;;;;;;;;;;18.40;32.00;;;;;;8331079;28;19929;-50
2022/03/19 10:48:39;;;;;;;;;;;18.40;31.90;;;;;;8331603;28;19925;-49
2022/03/19 10:52:39;;;;;;;;;;;18.50;31.90;;;;;;8331567;28;20294;-48
2022/03/19 10:56:41;;;;;;;;;;;18.50;31.90;;;;;;8330483;28;19921;-47
2022/03/19 11:00:41;;;;;;;;;;;18.50;31.90;;;;;;8332755;28;19917;-48
2022/03/19 11:04:42;;;;;;;;;;;18.50;31.80;;;;;;8331126;28;19955;-48
2022/03/19 11:08:43;;;;;;;;;;;18.50;31.80;;;;;;8330597;28;19996;-48
2022/03/19 11:12:50;;;;;;;;;;;18.50;31.80;;;;;;8330229;28;19914;-47
2022/03/19 11:17:32;;;;;;;;;;;18.60;31.80;;;;;;8330758;28;19917;-52
2022/03/19 11:21:33;;;;;;;;;;;18.60;31.70;;;;;;8327539;28;20357;-51
2022/03/19 11:25:33;;;;;;;;;;;18.70;31.70;;;;;;8363403;28;20183;-47
2022/03/19 11:29:34;;;;;;;;;;;18.70;31.70;;;;;;8362859;28;19916;-49
2022/03/19 11:33:35;;;;;;;;;;;18.70;31.70;;;;;;8363228;28;20019;-48
2022/03/19 11:37:54;;;;;;;;;;;18.80;31.70;;;;;;8363225;28;20361;-47
2022/03/19 11:41:55;;;;;;;;;;;18.80;31.60;;;;;;8362340;28;19923;-52
2022/03/19 11:45:57;;;;;;;;;;;18.80;31.60;;;;;;8362965;28;19925;-49
2022/03/19 11:50:02;;;;;;;;;;;18.80;31.60;;;;;;8362853;28;19921;-48
2022/03/19 11:54:15;;;;;;;;;;;18.80;31.60;;;;;;8362496;28;19924;-50
2022/03/19 11:58:15;;;;;;;;;;;18.80;31.60;;;;;;8363046;28;19928;-47
2022/03/19 12:02:16;;;;;;;;;;;18.80;31.60;;;;;;8362471;28;19917;-48
2022/03/19 12:06:33;;;;;;;;;;;18.80;31.60;;;;;;8362721;28;20031;-50
2022/03/19 12:10:38;;;;;;;;;;;18.90;31.60;;;;;;8362803;28;20286;-49
2022/03/19 12:14:40;;;;;;;;;;;18.90;31.60;;;;;;8362071;28;19917;-49
2022/03/19 12:18:42;;;;;;;;;;;18.90;31.60;;;;;;8362700;28;19913;-51
2022/03/19 12:22:42;;;;;;;;;;;18.90;31.60;;;;;;8362660;28;20011;-47
2022/03/19 12:26:47;;;;;;;;;;;18.90;31.50;;;;;;8367855;28;20342;-50
2022/03/19 12:30:47;;;;;;;;;;;18.90;31.50;;;;;;8369154;28;19991;-47
2022/03/19 12:34:57;;;;;;;;;;;18.90;31.50;;;;;;8368705;28;19913;-48
2022/03/19 12:39:03;;;;;;;;;;;19.00;31.50;;;;;;8368002;28;19916;-50
2022/03/19 12:43:03;;;;;;;;;;;18.90;31.40;;;;;;8368787;28;20003;-46
2022/03/19 12:47:05;;;;;;;;;;;19.00;31.40;;;;;;8367719;28;19931;-48
2022/03/19 12:51:05;;;;;;;;;;;19.00;31.50;;;;;;8367992;28;19952;-49
2022/03/19 12:55:17;;;;;;;;;;;19.00;31.50;;;;;;8368226;28;19921;-47
2022/03/19 12:59:21;;;;;;;;;;;19.00;32.00;;;;;;8367335;28;19920;-47
2022/03/19 13:03:30;;;;;;;;;;;19.00;31.40;;;;;;8368369;28;19913;-48
2022/03/19 13:07:30;;;;;;;;;;;19.00;31.50;;;;;;8367470;28;19925;-47
2022/03/19 13:11:51;;;;;;;;;;;19.00;31.50;;;;;;8367101;28;19939;-46
2022/03/19 13:15:53;;;;;;;;;;;19.00;31.40;;;;;;8366890;28;19924;-51
2022/03/19 13:20:04;;;;;;;;;;;19.00;31.50;;;;;;8367281;28;19931;-48
2022/03/19 13:24:08;;;;;;;;;;;19.00;31.50;;;;;;8366931;28;19917;-46
2022/03/19 13:28:10;;;;;;;;;;;19.00;31.40;;;;;;8367144;28;19921;-46
2022/03/19 13:32:12;;;;;;;;;;;19.00;31.40;;;;;;8366458;28;19917;-51
2022/03/19 13:36:12;;;;;;;;;;;19.00;31.50;;;;;;8366613;28;20291;-48
2022/03/19 13:40:19;;;;;;;;;;;19.00;31.40;;;;;;8366789;28;19917;-48
2022/03/19 13:44:25;;;;;;;;;;;19.10;31.50;;;;;;8368140;28;19921;-46
2022/03/19 13:48:26;;;;;;;;;;;19.10;32.00;;;;;;8366684;28;20301;-52
2022/03/19 13:52:40;;;;;;;;;;;19.00;31.50;;;;;;8366152;28;19917;-49
2022/03/19 13:56:56;;;;;;;;;;;19.00;31.40;;;;;;8365776;28;19966;-46
2022/03/19 14:00:57;;;;;;;;;;;19.00;31.40;;;;;;8366269;28;20396;-47
2022/03/19 14:04:58;;;;;;;;;;;19.10;31.40;;;;;;8365922;28;20039;-47
2022/03/19 14:08:59;;;;;;;;;;;19.10;31.40;;;;;;8364451;28;20004;-51
2022/03/19 14:13:20;;;;;;;;;;;19.10;31.40;;;;;;8365752;28;19943;-48
2022/03/19 14:17:20;;;;;;;;;;;19.10;31.30;;;;;;8364462;28;20011;-47
2022/03/19 14:21:21;;;;;;;;;;;19.10;31.40;;;;;;8365382;28;20369;-52
2022/03/19 14:25:21;;;;;;;;;;;19.10;31.30;;;;;;8365178;28;19921;-47
2022/03/19 14:29:22;;;;;;;;;;;19.10;31.30;;;;;;8364676;28;19920;-49
2022/03/19 14:33:25;;;;;;;;;;;19.10;31.30;;;;;;8365249;28;19916;-50
2022/03/19 14:37:26;;;;;;;;;;;19.10;31.30;;;;;;8364766;28;20004;-48
2022/03/19 14:41:28;;;;;;;;;;;19.10;31.30;;;;;;8364246;28;19978;-49
2022/03/19 14:45:29;;;;;;;;;;;19.10;31.20;;;;;;8364416;28;19928;-48
2022/03/19 14:49:29;;;;;;;;;;;19.10;31.30;;;;;;8363978;28;19921;-46
2022/03/19 14:53:40;;;;;;;;;;;19.10;31.30;;;;;;8364199;28;20303;-46
2022/03/19 14:57:40;;;;;;;;;;;19.10;31.30;;;;;;8364558;28;19927;-50
2022/03/19 15:01:41;;;;;;;;;;;19.10;31.20;;;;;;8364180;28;19912;-47
2022/03/19 15:05:42;;;;;;;;;;;19.10;31.20;;;;;;8363819;28;20357;-48
2022/03/19 15:09:43;;;;;;;;;;;19.10;31.30;;;;;;8364079;28;19917;-49
2022/03/19 15:13:45;;;;;;;;;;;19.10;31.30;;;;;;8364168;28;20292;-46
2022/03/19 15:17:45;;;;;;;;;;;19.10;31.20;;;;;;8363145;28;20285;-48
2022/03/19 15:21:46;;;;;;;;;;;19.10;31.20;;;;;;8363573;28;19924;-46
2022/03/19 15:25:46;;;;;;;;;;;19.10;31.20;;;;;;8363568;28;20027;-48
2022/03/19 15:29:51;;;;;;;;;;;19.10;31.30;;;;;;8362843;28;19917;-47
2022/03/19 15:33:52;;;;;;;;;;;19.10;31.10;;;;;;8363472;28;19916;-47
2022/03/19 15:37:53;;;;;;;;;;;19.10;31.10;;;;;;8363183;28;20293;-49
2022/03/19 15:41:53;;;;;;;;;;;19.10;31.10;;;;;;8362674;28;20282;-51
2022/03/19 15:45:53;;;;;;;;;;;19.10;31.20;;;;;;8362915;28;19921;-49
2022/03/19 15:49:54;;;;;;;;;;;19.10;31.20;;;;;;8362922;28;19939;-46
2022/03/19 15:53:54;;;;;;;;;;;19.10;31.10;;;;;;8362748;28;20281;-48
2022/03/19 15:57:55;;;;;;;;;;;19.10;31.20;;;;;;8364146;28;20040;-49
2022/03/19 16:01:55;;;;;;;;;;;19.10;31.20;;;;;;8369839;28;19913;-50
2022/03/19 16:05:56;;;;;;;;;;;19.10;31.20;;;;;;8368850;28;19931;-52
2022/03/19 16:09:56;;;;;;;;;;;19.10;31.00;;;;;;8369615;28;19913;-50
2022/03/19 16:13:57;;;;;;;;;;;19.10;31.10;;;;;;8369670;28;19939;-47
2022/03/19 16:17:58;;;;;;;;;;;19.10;31.20;;;;;;8368825;28;20263;-52
2022/03/19 16:21:58;;;;;;;;;;;19.10;31.20;;;;;;8369315;28;19924;-47
2022/03/19 16:25:59;;;;;;;;;;;19.10;31.10;;;;;;8368838;28;19967;-47
2022/03/19 16:30:00;;;;;;;;;;;19.10;31.20;;;;;;8368358;28;20015;-48
2022/03/19 16:34:00;;;;;;;;;;;19.10;31.20;;;;;;8369258;28;19916;-47
2022/03/19 16:38:01;;;;;;;;;;;19.10;31.20;;;;;;8368583;28;19936;-49
2022/03/19 16:42:01;;;;;;;;;;;19.10;31.10;;;;;;8368127;28;19917;-46
2022/03/19 16:46:02;;;;;;;;;;;19.10;31.10;;;;;;8368416;28;19926;-49
2022/03/19 16:50:03;;;;;;;;;;;19.00;31.00;;;;;;8367991;28;19917;-47
2022/03/19 16:54:04;;;;;;;;;;;19.00;31.20;;;;;;8368429;28;20392;-47
2022/03/19 16:58:04;;;;;;;;;;;19.10;31.20;;;;;;8368211;28;19928;-47
2022/03/19 17:02:05;;;;;;;;;;;19.10;31.20;;;;;;8366415;28;20000;-49
2022/03/19 17:06:05;;;;;;;;;;;19.10;31.20;;;;;;8368016;28;20007;-50
2022/03/19 17:10:07;;;;;;;;;;;19.00;31.10;;;;;;8367237;28;20007;-46
2022/03/19 17:14:08;;;;;;;;;;;19.00;31.20;;;;;;8367119;28;19917;-48
2022/03/19 17:18:10;;;;;;;;;;;19.00;31.20;;;;;;8367663;28;19970;-47
2022/03/19 17:22:11;;;;;;;;;;;19.00;31.10;;;;;;8367459;28;19913;-48
2022/03/19 17:26:11;;;;;;;;;;;19.00;31.20;;;;;;8366688;28;19932;-47
2022/03/19 17:30:12;;;;;;;;;;;19.00;31.20;;;;;;8367335;28;19913;-46
2022/03/19 17:34:12;;;;;;;;;;;19.00;31.20;;;;;;8367566;28;19920;-48
2022/03/19 17:38:13;;;;;;;;;;;18.90;31.10;;;;;;8366260;28;19924;-46
2022/03/19 17:42:13;;;;;;;;;;;19.00;31.20;;;;;;8366695;28;20003;-48
2022/03/19 17:46:13;;;;;;;;;;;18.90;31.10;;;;;;8366499;28;19925;-49
2022/03/19 17:50:15;;;;;;;;;;;18.90;31.20;;;;;;8366067;28;19935;-46
2022/03/19 17:54:16;;;;;;;;;;;18.90;31.20;;;;;;8366493;28;19916;-47
2022/03/19 17:58:16;;;;;;;;;;;19.00;31.30;;;;;;8366040;28;19921;-48
2022/03/19 18:02:17;;;;;;;;;;;18.90;31.10;;;;;;8347771;28;20322;-50
2022/03/19 18:06:17;;;;;;;;;;;18.90;31.20;;;;;;8366124;28;19928;-47
2022/03/19 18:10:18;;;;;;;;;;;18.90;31.30;;;;;;8366048;28;19913;-47
2022/03/19 18:14:18;;;;;;;;;;;18.90;31.10;;;;;;8365184;28;19951;-47
2022/03/19 18:18:18;;;;;;;;;;;18.90;31.00;;;;;;8365789;28;20421;-46
2022/03/19 18:22:19;;;;;;;;;;;18.90;31.30;;;;;;8364331;28;19920;-49
2022/03/19 18:26:19;;;;;;;;;;;18.90;31.20;;;;;;8364762;28;20037;-46
2022/03/19 18:30:23;;;;;;;;;;;18.90;31.10;;;;;;8365387;28;19935;-46
2022/03/19 18:34:24;;;;;;;;;;;18.90;31.20;;;;;;8365046;28;20334;-47
2022/03/19 18:38:24;;;;;;;;;;;18.90;31.30;;;;;;8364584;28;19921;-48
2022/03/19 18:42:25;;;;;;;;;;;18.90;31.30;;;;;;8364859;28;19975;-48
2022/03/19 18:46:26;;;;;;;;;;;18.90;31.20;;;;;;8364900;28;19935;-50
2022/03/19 18:50:26;;;;;;;;;;;18.90;31.30;;;;;;8364338;28;19948;-49
2022/03/19 18:54:27;;;;;;;;;;;18.90;31.40;;;;;;8364469;28;19996;-49
2022/03/19 18:58:27;;;;;;;;;;;18.90;31.30;;;;;;8364453;28;20353;-50
2022/03/19 19:02:27;;;;;;;;;;;18.90;31.30;;;;;;8363797;28;19923;-46
2022/03/19 19:06:28;;;;;;;;;;;18.80;31.30;;;;;;8363989;28;19970;-47
2022/03/19 19:10:28;;;;;;;;;;;18.80;31.20;;;;;;8364241;28;19948;-48
2022/03/19 19:14:29;;;;;;;;;;;18.80;31.10;;;;;;8363479;28;20282;-47
2022/03/19 19:18:29;;;;;;;;;;;18.80;31.10;;;;;;8363821;28;20051;-48
2022/03/19 19:22:30;;;;;;;;;;;18.80;31.20;;;;;;8363698;28;19920;-47
2022/03/19 19:26:31;;;;;;;;;;;18.80;31.20;;;;;;8362929;28;19925;-49
2022/03/19 19:30:33;;;;;;;;;;;18.80;31.10;;;;;;8363670;28;19936;-50
2022/03/19 19:34:34;;;;;;;;;;;18.80;31.10;;;;;;8363480;28;20007;-48
2022/03/19 19:38:35;;;;;;;;;;;18.80;31.20;;;;;;8362923;28;19916;-48
2022/03/19 19:42:36;;;;;;;;;;;18.80;31.10;;;;;;8363314;28;20396;-50
2022/03/19 19:46:36;;;;;;;;;;;18.80;31.10;;;;;;8363192;28;19928;-50
2022/03/19 19:50:38;;;;;;;;;;;18.80;31.10;;;;;;8362665;28;19959;-50
2022/03/19 19:54:41;;;;;;;;;;;18.80;31.10;;;;;;8363270;28;20293;-47
2022/03/19 19:58:42;;;;;;;;;;;18.80;31.20;;;;;;8363229;28;20003;-49
2022/03/19 20:02:42;;;;;;;;;;;18.80;31.00;;;;;;8355635;28;20346;-48
2022/03/19 20:11:03;;;;;;;;;;;18.80;31.10;;;;;;8329829;28;19941;-49
2022/03/19 20:15:04;;;;;;;;;;;18.80;30.90;;;;;;8329651;28;19957;-48
2022/03/19 20:19:05;;;;;;;;;;;18.80;31.00;;;;;;8329674;28;19917;-47
2022/03/19 20:23:05;;;;;;;;;;;18.80;31.00;;;;;;8329109;28;20380;-50
2022/03/19 20:27:06;;;;;;;;;;;18.80;31.00;;;;;;8366371;28;19971;-49
2022/03/19 20:31:08;;;;;;;;;;;18.80;31.00;;;;;;8329666;28;19936;-47
2022/03/19 20:35:09;;;;;;;;;;;18.80;31.00;;;;;;8328956;28;20447;-46
2022/03/19 20:39:10;;;;;;;;;;;18.80;31.00;;;;;;8329719;28;19929;-46
2022/03/19 20:43:10;;;;;;;;;;;18.80;31.00;;;;;;8329349;28;19932;-47
2022/03/19 20:47:11;;;;;;;;;;;18.80;31.00;;;;;;8333524;28;19932;-48
2022/03/19 20:51:12;;;;;;;;;;;18.70;31.00;;;;;;8335548;28;20011;-50
2022/03/19 20:55:13;;;;;;;;;;;18.70;30.90;;;;;;8335550;28;19982;-47
2022/03/19 20:59:15;;;;;;;;;;;18.70;30.80;;;;;;8317213;28;19921;-48
2022/03/19 21:03:16;;;;;;;;;;;18.70;30.80;;;;;;8334962;28;19917;-50
2022/03/19 21:07:16;;;;;;;;;;;18.70;30.80;;;;;;8335031;28;19933;-47
2022/03/19 21:15:37;;;;;;;;;;;18.70;30.70;;;;;;8334922;28;19959;-49
2022/03/19 21:19:37;;;;;;;;;;;18.70;30.70;;;;;;8334562;28;20435;-51
2022/03/19 21:23:38;;;;;;;;;;;18.70;30.80;;;;;;8334000;28;19916;-46
2022/03/19 21:27:41;;;;;;;;;;;18.70;30.80;;;;;;8334216;28;19925;-47
2022/03/19 21:31:41;;;;;;;;;;;18.70;30.70;;;;;;8334549;28;19951;-49
2022/03/19 21:35:45;;;;;;;;;;;18.70;30.80;;;;;;8333631;28;20002;-50
2022/03/19 21:44:04;;;;;;;;;;;18.70;30.60;;;;;;8335637;28;20329;-51
2022/03/19 21:48:07;;;;;;;;;;;18.70;30.60;;;;;;8333575;28;19968;-47
2022/03/19 21:52:07;;;;;;;;;;;18.60;30.60;;;;;;8333501;28;19924;-47
2022/03/19 21:56:08;;;;;;;;;;;18.60;30.60;;;;;;8333166;28;20247;-50
2022/03/19 22:00:12;;;;;;;;;;;18.60;30.60;;;;;;8333363;28;19917;-50
2022/03/19 22:04:13;;;;;;;;;;;18.60;30.60;;;;;;8333111;28;19918;-51
2022/03/19 22:08:13;;;;;;;;;;;18.60;30.60;;;;;;8332232;28;20370;-48
2022/03/19 22:12:14;;;;;;;;;;;18.60;30.60;;;;;;8333098;28;19920;-48
2022/03/19 22:16:14;;;;;;;;;;;18.60;30.60;;;;;;8333046;28;20005;-51
2022/03/19 22:20:14;;;;;;;;;;;18.60;30.60;;;;;;8332119;28;19963;-48
2022/03/19 22:24:15;;;;;;;;;;;18.60;30.60;;;;;;8332569;28;19917;-50
2022/03/19 22:28:17;;;;;;;;;;;18.60;30.60;;;;;;8332220;28;20301;-48
2022/03/19 22:32:18;;;;;;;;;;;18.50;30.70;;;;;;8332055;28;19913;-48
2022/03/19 22:36:19;;;;;;;;;;;18.50;30.60;;;;;;8332280;28;19917;-49
2022/03/19 22:40:19;;;;;;;;;;;18.50;30.60;;;;;;8332033;28;20008;-49
2022/03/19 22:44:19;;;;;;;;;;;18.50;30.60;;;;;;8331321;28;19921;-49
2022/03/19 22:48:20;;;;;;;;;;;18.50;30.60;;;;;;8331731;28;19936;-48
2022/03/19 22:52:22;;;;;;;;;;;18.50;30.60;;;;;;8332030;28;20009;-47
2022/03/19 22:56:22;;;;;;;;;;;18.40;30.60;;;;;;8331411;28;19987;-48
2022/03/19 23:00:23;;;;;;;;;;;18.50;30.60;;;;;;8331931;28;19921;-48
2022/03/19 23:04:23;;;;;;;;;;;18.50;30.70;;;;;;8364175;28;19917;-49
2022/03/19 23:08:24;;;;;;;;;;;18.40;30.60;;;;;;8361919;28;20019;-49
2022/03/19 23:12:24;;;;;;;;;;;18.40;30.60;;;;;;8364225;28;20374;-47
2022/03/19 23:16:25;;;;;;;;;;;18.40;30.60;;;;;;8363906;28;19917;-48
2022/03/19 23:20:25;;;;;;;;;;;18.40;30.60;;;;;;8363359;28;20373;-50
2022/03/19 23:24:26;;;;;;;;;;;18.40;30.70;;;;;;8363757;28;19917;-50
2022/03/19 23:28:27;;;;;;;;;;;18.40;30.70;;;;;;8363536;28;20000;-47
2022/03/19 23:32:28;;;;;;;;;;;18.40;30.70;;;;;;8363386;28;20010;-48
2022/03/19 23:36:28;;;;;;;;;;;18.40;30.60;;;;;;8363623;28;20000;-48
2022/03/19 23:40:29;;;;;;;;;;;18.40;30.70;;;;;;8363503;28;19923;-46
2022/03/19 23:44:30;;;;;;;;;;;18.30;30.70;;;;;;8362838;28;20358;-48
2022/03/19 23:48:30;;;;;;;;;;;18.30;30.70;;;;;;8363082;28;19933;-49
2022/03/19 23:52:31;;;;;;;;;;;18.30;30.70;;;;;;8363139;28;19913;-47
2022/03/19 23:56:31;;;;;;;;;;;18.30;30.70;;;;;;8362853;28;20357;-49
